Holloway, Louisiana
Current Conditions -  °F | °C
As of 10:08 PM on Friday 24 Oct 2014 (Local Time) from KESF Reporting Station
Haze Haze  
Wind Chill: 50°   Ceiling: Unl
Heat Index: 50°   Visibility: 3mi
Dew Point: 50°   Wind: 0mph
Humidity: 100%   Direction: NA
Pressure: 30.14"   Gusts: NA
Location:  31.3606°N, 92.2142°W
Report Text: KESF 250308Z AUTO 00000KT 3SM BR CLR 10/10 A3014 RMK AO2 T01000100
Loading
Personal Weather Stations






























Interactive Weather Map New forecast layout! Learn more

10-Day Weather Forecast

Advertisements
Track Severe Weather on mobile